ADDS METAR Data INFO
IDs: Format: Raw Decoded Include TAF

Data at: 1956 UTC 18 Feb 2018

KAJG 181935Z AUTO 15010KT 10SM CLR 10/01 A3019 RMK AO2 T00970007
KAJG 181915Z AUTO 16009G14KT 10SM CLR 10/01 A3020 RMK AO2 T00960010
KAJG 181855Z AUTO 16009KT 10SM CLR 09/02 A3022 RMK AO2 T00920016
KAJG 181835Z AUTO 13008KT 10SM CLR 09/01 A3024 RMK AO2 T00860013
KAJG 181815Z AUTO 16010KT 10SM CLR 08/01 A3025 RMK AO2 T00840006
KAJG 181755Z AUTO 14008KT 10SM CLR 08/00 A3027 RMK AO2 T00800004 10081 21034
KAJG 181735Z AUTO 11007KT 10SM CLR 08/03 A3028 RMK AO2 T00780030
KAJG 181715Z AUTO 12009KT 10SM CLR 07/02 A3028 RMK AO2 T00700024
KAJG 181655Z AUTO 11008KT 10SM CLR 06/03 A3028 RMK AO2 T00620026
KAJG 181635Z AUTO 13009KT 10SM CLR 05/03 A3029 RMK AO2 T00540031
KAJG 181615Z AUTO 12008KT 10SM CLR 05/03 A3030 RMK AO2 T00460027
KAJG 181555Z AUTO 12005KT 10SM CLR 04/02 A3032 RMK AO2 T00350021
KAJG 181535Z AUTO 13007KT 7SM CLR 03/02 A3032 RMK AO2 T00260015
KAJG 181515Z AUTO 12009KT 10SM CLR 02/01 A3032 RMK AO2 T00200013
KAJG 181455Z AUTO 11008KT 10SM CLR 01/01 A3033 RMK AO2 T00130009
KAJG 181435Z AUTO 10005KT 7SM CLR 01/00 A3034 RMK AO2 T00060002
KAJG 181415Z AUTO 09003KT 4SM BR CLR 00/00 A3034 RMK AO2 T10021005
KAJG 181355Z AUTO 00000KT 2 1/2SM BR CLR M01/M01 A3035 RMK AO2 T10091012
KAJG 181335Z AUTO 12003KT 1 1/2SM BR BKN003 M02/M02 A3035 RMK AO2 T10191022
KAJG 181315Z AUTO 11003KT 1/4SM FZFG OVC003 M03/M03 A3034 RMK AO2 T10321035
KAJG 181255Z AUTO 10003KT 1 3/4SM BR BKN003 M03/M03 A3033 RMK AO2 T10301034
KAJG 181235Z AUTO 00000KT 3SM BR CLR M03/M03 A3033 RMK AO2 T10271031
KAJG 181215Z AUTO 14003KT 3SM BR CLR M03/M03 A3033 RMK AO2 T10311034
KAJG 181155Z AUTO 08003KT 2 1/2SM BR CLR M03/M03 A3033 RMK AO2 T10301033 10001 21035
KAJG 181135Z AUTO 05003KT 2 1/2SM BR CLR M03/M03 A3033 RMK AO2 T10261029
KAJG 181115Z AUTO 00000KT 2SM BR SCT003 M03/M03 A3033 RMK AO2 T10311034
KAJG 181055Z AUTO 06003KT 1/4SM FZFG OVC003 M02/M02 A3033 RMK AO2 T10171021
KAJG 181035Z AUTO 00000KT 1/2SM FZFG BKN003 M02/M03 A3033 RMK AO2 T10241027
KAJG 181015Z AUTO 00000KT 1SM BR VV007 M02/M02 A3033 RMK AO2 T10201024
KAJG 180955Z AUTO 00000KT 3SM BR CLR M02/M02 A3032 RMK AO2 T10191022
KAJG 180935Z AUTO 00000KT 2 1/2SM BR CLR M02/M02 A3031 RMK AO2 T10201023
KAJG 180915Z AUTO 00000KT 3SM BR CLR M01/M02 A3030 RMK AO2 T10131017
KAJG 180855Z AUTO 00000KT 3SM BR CLR M01/M02 A3030 RMK AO2 T10151019
KAJG 180835Z AUTO 00000KT 5SM BR CLR M01/M02 A3030 RMK AO2 T10121016
KAJG 180815Z AUTO 19003KT 1 1/4SM BR BKN003 M02/M02 A3029 RMK AO2 T10191023
KAJG 180755Z AUTO 00000KT 1/4SM FZFG OVC003 M01/M01 A3028 RMK AO2 T10121015
KAJG 180735Z AUTO 00000KT 1 1/2SM BR VV007 M01/M01 A3028 RMK AO2 T10071011
KAJG 180715Z AUTO 00000KT 4SM BR CLR 00/00 A3027 RMK AO2 T10021005
KAJG 180655Z AUTO 00000KT 4SM BR SCT002 SCT014 00/00 A3026 RMK AO2 T00001001
KAJG 180635Z AUTO 00000KT 3/4SM BR BKN002 BKN016 M01/M01 A3026 RMK AO2 T10101014
KAJG 180615Z AUTO 00000KT 4SM BR SCT016 00/00 A3025 RMK AO2 T10021004
KAJG 180555Z AUTO 00000KT 7SM SCT016 00/00 A3025 RMK AO2 T00010000 10038 20000 400381011
KAJG 180535Z AUTO 00000KT 7SM SCT018 00/00 A3025 RMK AO2 T00030000
KAJG 180515Z AUTO 24003KT 7SM SCT018 00/00 A3025 RMK AO2 T00011001
KAJG 180455Z AUTO 26003KT 7SM CLR 00/00 A3025 RMK AO2 T00001001
KAJG 180435Z AUTO 25003KT 10SM SCT018 01/00 A3024 RMK AO2 T00050000
KAJG 180415Z AUTO 23005KT 10SM SCT018 00/00 A3024 RMK AO2 T00030000
KAJG 180355Z AUTO 24005KT 10SM CLR 01/00 A3022 RMK AO2 T00090001
KAJG 180335Z AUTO 24005KT 10SM CLR 01/00 A3022 RMK AO2 T00080001
KAJG 180315Z AUTO 25003KT 10SM CLR 01/00 A3020 RMK AO2 T00080000
KAJG 180255Z AUTO 25006KT 10SM CLR 01/00 A3019 RMK AO2 T00090000
KAJG 180235Z AUTO 27007KT 10SM CLR 01/00 A3019 RMK AO2 T00140003
KAJG 180215Z AUTO 27006KT 10SM CLR 02/01 A3017 RMK AO2 T00190006
KAJG 180155Z AUTO 30007KT 10SM SCT021 SCT027 03/02 A3017 RMK AO2 T00320015
KAJG 180135Z AUTO 29008KT 10SM BKN022 OVC027 04/02 A3015 RMK AO2 T00360022
KAJG 180115Z AUTO 29009KT 10SM OVC025 04/03 A3015 RMK AO2 T00370025
KAJG 180055Z AUTO 29011KT 10SM BKN011 OVC025 04/03 A3014 RMK AO2 T00370026
KAJG 180035Z AUTO 28010KT 10SM OVC011 04/03 A3013 RMK AO2 T00350027
KAJG 180015Z AUTO 26010KT 7SM OVC011 03/03 A3012 RMK AO2 T00320026
KAJG 172355Z AUTO 25011KT 10SM BKN008 OVC013 03/03 A3011 RMK AO2 T00300026 10030 20005
KAJG 172335Z AUTO 24009KT 7SM OVC006 03/03 A3010 RMK AO2 T00300025
KAJG 172315Z AUTO 24008KT 7SM OVC004 03/03 A3008 RMK AO2 T00280025
KAJG 172255Z AUTO 23007KT 1 3/4SM BR OVC004 03/02 A3007 RMK AO2 T00250022
KAJG 172235Z AUTO 22006KT 3/4SM -DZ OVC004 03/02 A3006 RMK AO2 T00250021
KAJG 172215Z AUTO 22007KT 2 1/2SM BR OVC006 03/02 A3006 RMK AO2 T00250021
KAJG 172155Z AUTO 22007KT 2SM BR OVC006 03/02 A3005 RMK AO2 T00250020
KAJG 172135Z AUTO 22004KT 1 1/2SM BR OVC004 02/02 A3004 RMK AO2 T00220019
KAJG 172115Z AUTO 23005KT 2SM BR OVC004 02/02 A3004 RMK AO2 T00210017
KAJG 172055Z AUTO 22005KT 7SM OVC004 02/02 A3004 RMK AO2 T00200015
KAJG 172035Z AUTO 21007KT 5SM BR OVC004 02/02 A3003 RMK AO2 T00200015
KAJG 172015Z AUTO 20006KT 7SM OVC004 02/01 A3002 RMK AO2 T00160011
KAJG 171955Z AUTO 20006KT 5SM BR OVC004 02/01 A3002 RMK AO2 T00150010
KAJG 171935Z AUTO 17005KT 7SM OVC004 01/01 A3001 RMK AO2 T00130010
KAJG 171915Z AUTO 16005KT 5SM BR OVC004 01/01 A3001 RMK AO2 T00100006
KAJG 171855Z AUTO 17005KT 3SM BR OVC002 01/01 A3003 RMK AO2 T00100005
KAJG 171835Z AUTO 16006KT 2 1/2SM -RA OVC002 01/00 A3004 RMK AO2 T00070003
KAJG 171815Z AUTO 17005KT 2SM -RA OVC002 01/00 A3006 RMK AO2 T00060002
KAJG 171755Z AUTO 17003KT 1 3/4SM -RA OVC002 01/00 A3007 RMK AO2 T00050000 10010 21001
KAJG 171735Z AUTO 15003KT 1 1/4SM SN OVC002 00/00 A3009 RMK AO2 T00030000
KAJG 171715Z AUTO 13004KT 3/4SM -SN OVC002 00/00 A3008 RMK AO2 T00020000
KAJG 171655Z AUTO 14006KT 1/2SM -SN OVC002 00/00 A3009 RMK AO2 T00020000
KAJG 171635Z AUTO 13004KT 1/2SM -SN OVC009 00/00 A3010 RMK AO2 T00020000
KAJG 171615Z AUTO 13003KT 1/4SM -SN OVC009 00/00 A3012 RMK AO2 T00020000
KAJG 171555Z AUTO 00000KT 1/2SM SN OVC013 00/00 A3014 RMK AO2 T00030000
KAJG 171535Z AUTO 00000KT 1SM -SN OVC015 00/00 A3014 RMK AO2 T00040000
KAJG 171515Z AUTO 00000KT 1 1/4SM -SN BKN013 BKN018 OVC027 01/00 A3014 RMK AO2 T00071005
KAJG 171455Z AUTO 11003KT 10SM SCT027 BKN043 OVC055 01/00 A3013 RMK AO2 T00081005
KAJG 171435Z AUTO 00000KT 10SM BKN060 OVC070 01/M01 A3014 RMK AO2 T00091006
KAJG 171415Z AUTO 12005KT 10SM OVC075 01/M01 A3013 RMK AO2 T00061007
KAJG 171355Z AUTO 12007KT 10SM BKN075 OVC085 01/M01 A3011 RMK AO2 T00051010
KAJG 171335Z AUTO 11004KT 10SM OVC080 00/M01 A3014 RMK AO2 T00021010
KAJG 171315Z AUTO 10003KT 10SM OVC080 00/M01 A3016 RMK AO2 T00001011
KAJG 171255Z AUTO 11005KT 10SM BKN080 OVC090 00/M01 A3017 RMK AO2 T00001013
KAJG 171235Z AUTO 05003KT 10SM BKN085 OVC110 00/M02 A3019 RMK AO2 T00001017
KAJG 171215Z AUTO 04003KT 10SM OVC110 00/M02 A3020 RMK AO2 T00001017
KAJG 171155Z AUTO 00000KT 10SM BKN110 00/M01 A3019 RMK AO2 T10011014 11001 21011
KAJG 171135Z AUTO 07003KT 10SM CLR 00/M01 A3017 RMK AO2 T10021014
KAJG 171115Z AUTO 05003KT 10SM CLR 00/M02 A3018 RMK AO2 T10051016
KAJG 171055Z AUTO 07003KT 10SM CLR 00/M02 A3019 RMK AO2 T10051017
KAJG 171035Z AUTO 05004KT 10SM CLR M01/M02 A3018 RMK AO2 T10071020
KAJG 171015Z AUTO 05004KT 10SM CLR M01/M02 A3019 RMK AO2 T10101023
KAJG 170955Z AUTO 05003KT 10SM CLR M01/M03 A3020 RMK AO2 T10101026
KAJG 170935Z AUTO 04005KT 10SM CLR M01/M03 A3020 RMK AO2 T10071028
KAJG 170915Z AUTO 05004KT 10SM CLR M01/M03 A3021 RMK AO2 T10101027
KAJG 170855Z AUTO 04003KT 10SM CLR M01/M02 A3022 RMK AO2 T10091025
KAJG 170835Z AUTO 06003KT 10SM CLR M01/M03 A3022 RMK AO2 T10071026
KAJG 170815Z AUTO 04005KT 10SM CLR 00/M03 A3022 RMK AO2 T10021029